sensor_id;sensor_type;location;lat;lon;timestamp;P1;durP1;ratioP1;P2;durP2;ratioP2
23258;SDS011;11798;51.528;7.240;2023-03-14T00:00:10;5.27;;;1.90;;
23258;SDS011;11798;51.528;7.240;2023-03-14T00:02:37;5.97;;;2.20;;
23258;SDS011;11798;51.528;7.240;2023-03-14T00:05:04;5.13;;;2.10;;
23258;SDS011;11798;51.528;7.240;2023-03-14T00:07:40;4.93;;;2.23;;
23258;SDS011;11798;51.528;7.240;2023-03-14T00:10:07;7.50;;;2.00;;
23258;SDS011;11798;51.528;7.240;2023-03-14T00:12:38;8.10;;;2.37;;
23258;SDS011;11798;51.528;7.240;2023-03-14T00:15:04;3.97;;;2.07;;
23258;SDS011;11798;51.528;7.240;2023-03-14T00:17:33;4.83;;;1.90;;
23258;SDS011;11798;51.528;7.240;2023-03-14T00:19:59;9.60;;;1.87;;
23258;SDS011;11798;51.528;7.240;2023-03-14T00:22:36;6.70;;;2.07;;
23258;SDS011;11798;51.528;7.240;2023-03-14T00:25:03;7.53;;;2.27;;
23258;SDS011;11798;51.528;7.240;2023-03-14T00:27:29;9.07;;;2.20;;
23258;SDS011;11798;51.528;7.240;2023-03-14T00:29:55;7.07;;;1.90;;
23258;SDS011;11798;51.528;7.240;2023-03-14T00:32:21;6.13;;;2.37;;
23258;SDS011;11798;51.528;7.240;2023-03-14T00:34:46;4.47;;;2.00;;
23258;SDS011;11798;51.528;7.240;2023-03-14T00:37:12;7.37;;;2.23;;
23258;SDS011;11798;51.528;7.240;2023-03-14T00:39:38;4.77;;;2.27;;
23258;SDS011;11798;51.528;7.240;2023-03-14T00:42:03;5.03;;;2.03;;
23258;SDS011;11798;51.528;7.240;2023-03-14T00:44:29;6.33;;;2.17;;
23258;SDS011;11798;51.528;7.240;2023-03-14T00:46:55;3.93;;;1.60;;
23258;SDS011;11798;51.528;7.240;2023-03-14T00:49:21;5.60;;;1.80;;
23258;SDS011;11798;51.528;7.240;2023-03-14T00:51:47;10.30;;;2.40;;
23258;SDS011;11798;51.528;7.240;2023-03-14T00:54:13;8.60;;;2.37;;
23258;SDS011;11798;51.528;7.240;2023-03-14T00:56:38;10.20;;;2.60;;
23258;SDS011;11798;51.528;7.240;2023-03-14T00:59:04;7.30;;;2.00;;
23258;SDS011;11798;51.528;7.240;2023-03-14T01:01:30;6.60;;;2.07;;
23258;SDS011;11798;51.528;7.240;2023-03-14T01:03:55;6.57;;;1.80;;
23258;SDS011;11798;51.528;7.240;2023-03-14T01:06:23;5.93;;;1.53;;
23258;SDS011;11798;51.528;7.240;2023-03-14T01:08:50;5.17;;;1.70;;
23258;SDS011;11798;51.528;7.240;2023-03-14T01:11:18;7.40;;;1.70;;
23258;SDS011;11798;51.528;7.240;2023-03-14T01:13:45;4.83;;;1.50;;
23258;SDS011;11798;51.528;7.240;2023-03-14T01:16:12;4.60;;;1.47;;
23258;SDS011;11798;51.528;7.240;2023-03-14T01:18:39;5.67;;;1.30;;
23258;SDS011;11798;51.528;7.240;2023-03-14T01:21:16;3.40;;;1.40;;
23258;SDS011;11798;51.528;7.240;2023-03-14T01:23:45;4.30;;;1.30;;
23258;SDS011;11798;51.528;7.240;2023-03-14T01:26:12;3.80;;;1.30;;
23258;SDS011;11798;51.528;7.240;2023-03-14T01:28:38;2.27;;;0.87;;
23258;SDS011;11798;51.528;7.240;2023-03-14T01:31:05;3.07;;;0.77;;
23258;SDS011;11798;51.528;7.240;2023-03-14T01:33:33;4.90;;;1.13;;
23258;SDS011;11798;51.528;7.240;2023-03-14T01:35:59;2.90;;;1.10;;
23258;SDS011;11798;51.528;7.240;2023-03-14T01:38:27;5.17;;;1.07;;
23258;SDS011;11798;51.528;7.240;2023-03-14T01:40:53;3.30;;;1.20;;
23258;SDS011;11798;51.528;7.240;2023-03-14T01:43:19;2.60;;;1.13;;
23258;SDS011;11798;51.528;7.240;2023-03-14T01:48:40;4.00;;;1.30;;
23258;SDS011;11798;51.528;7.240;2023-03-14T01:51:16;6.03;;;1.37;;
23258;SDS011;11798;51.528;7.240;2023-03-14T01:53:52;4.87;;;1.87;;
23258;SDS011;11798;51.528;7.240;2023-03-14T01:56:24;5.63;;;1.43;;
23258;SDS011;11798;51.528;7.240;2023-03-14T01:58:50;7.17;;;1.80;;
23258;SDS011;11798;51.528;7.240;2023-03-14T02:01:18;5.93;;;1.80;;
23258;SDS011;11798;51.528;7.240;2023-03-14T02:03:53;7.83;;;1.47;;
23258;SDS011;11798;51.528;7.240;2023-03-14T02:06:23;9.37;;;1.70;;
23258;SDS011;11798;51.528;7.240;2023-03-14T02:08:52;6.97;;;1.73;;
23258;SDS011;11798;51.528;7.240;2023-03-14T02:11:19;10.67;;;1.63;;
23258;SDS011;11798;51.528;7.240;2023-03-14T02:13:45;7.63;;;1.80;;
23258;SDS011;11798;51.528;7.240;2023-03-14T02:16:11;7.77;;;1.73;;
23258;SDS011;11798;51.528;7.240;2023-03-14T02:18:37;7.47;;;1.70;;
23258;SDS011;11798;51.528;7.240;2023-03-14T02:21:07;11.33;;;1.90;;
23258;SDS011;11798;51.528;7.240;2023-03-14T02:26:42;9.43;;;1.90;;
23258;SDS011;11798;51.528;7.240;2023-03-14T02:29:12;7.73;;;1.60;;
23258;SDS011;11798;51.528;7.240;2023-03-14T02:31:38;10.50;;;2.07;;
23258;SDS011;11798;51.528;7.240;2023-03-14T02:34:04;7.87;;;1.70;;
23258;SDS011;11798;51.528;7.240;2023-03-14T02:36:30;5.13;;;1.37;;
23258;SDS011;11798;51.528;7.240;2023-03-14T02:41:31;5.83;;;2.20;;
23258;SDS011;11798;51.528;7.240;2023-03-14T02:43:56;4.17;;;1.57;;
23258;SDS011;11798;51.528;7.240;2023-03-14T02:46:22;5.47;;;1.57;;
23258;SDS011;11798;51.528;7.240;2023-03-14T02:48:53;5.23;;;1.67;;
23258;SDS011;11798;51.528;7.240;2023-03-14T02:51:28;7.83;;;1.80;;
23258;SDS011;11798;51.528;7.240;2023-03-14T02:53:54;6.50;;;1.70;;
23258;SDS011;11798;51.528;7.240;2023-03-14T02:56:20;5.90;;;1.83;;
23258;SDS011;11798;51.528;7.240;2023-03-14T02:58:46;6.10;;;1.70;;
23258;SDS011;11798;51.528;7.240;2023-03-14T03:01:11;4.93;;;1.70;;
23258;SDS011;11798;51.528;7.240;2023-03-14T03:03:37;7.73;;;2.40;;
23258;SDS011;11798;51.528;7.240;2023-03-14T03:06:03;7.90;;;2.10;;
23258;SDS011;11798;51.528;7.240;2023-03-14T03:08:29;6.57;;;1.70;;
23258;SDS011;11798;51.528;7.240;2023-03-14T03:10:55;7.13;;;1.70;;
23258;SDS011;11798;51.528;7.240;2023-03-14T03:13:22;7.07;;;1.90;;
23258;SDS011;11798;51.528;7.240;2023-03-14T03:15:48;8.13;;;1.97;;
23258;SDS011;11798;51.528;7.240;2023-03-14T03:18:13;7.07;;;1.83;;
23258;SDS011;11798;51.528;7.240;2023-03-14T03:20:39;7.90;;;1.87;;
23258;SDS011;11798;51.528;7.240;2023-03-14T03:23:05;6.53;;;1.80;;
23258;SDS011;11798;51.528;7.240;2023-03-14T03:25:31;7.43;;;2.37;;
23258;SDS011;11798;51.528;7.240;2023-03-14T03:27:57;9.80;;;1.80;;
23258;SDS011;11798;51.528;7.240;2023-03-14T03:30:22;7.97;;;1.67;;
23258;SDS011;11798;51.528;7.240;2023-03-14T03:32:48;8.03;;;2.00;;
23258;SDS011;11798;51.528;7.240;2023-03-14T03:35:14;9.27;;;2.00;;
23258;SDS011;11798;51.528;7.240;2023-03-14T03:37:40;5.20;;;1.70;;
23258;SDS011;11798;51.528;7.240;2023-03-14T03:40:06;10.83;;;2.10;;
23258;SDS011;11798;51.528;7.240;2023-03-14T03:42:34;11.20;;;2.77;;
23258;SDS011;11798;51.528;7.240;2023-03-14T03:45:00;5.73;;;2.10;;
23258;SDS011;11798;51.528;7.240;2023-03-14T03:47:26;7.07;;;2.30;;
23258;SDS011;11798;51.528;7.240;2023-03-14T03:49:52;8.57;;;2.60;;
23258;SDS011;11798;51.528;7.240;2023-03-14T03:52:17;7.77;;;1.87;;
23258;SDS011;11798;51.528;7.240;2023-03-14T03:54:43;7.37;;;1.90;;
23258;SDS011;11798;51.528;7.240;2023-03-14T03:57:09;7.13;;;1.90;;
23258;SDS011;11798;51.528;7.240;2023-03-14T03:59:34;9.17;;;2.53;;
23258;SDS011;11798;51.528;7.240;2023-03-14T04:02:00;8.33;;;1.80;;
23258;SDS011;11798;51.528;7.240;2023-03-14T04:04:26;7.97;;;2.20;;
23258;SDS011;11798;51.528;7.240;2023-03-14T04:06:51;10.03;;;2.20;;
23258;SDS011;11798;51.528;7.240;2023-03-14T04:09:17;11.80;;;2.73;;
23258;SDS011;11798;51.528;7.240;2023-03-14T04:11:43;8.70;;;1.93;;
23258;SDS011;11798;51.528;7.240;2023-03-14T04:14:08;7.83;;;1.97;;
23258;SDS011;11798;51.528;7.240;2023-03-14T04:16:34;8.90;;;2.30;;
23258;SDS011;11798;51.528;7.240;2023-03-14T04:19:03;8.03;;;2.40;;
23258;SDS011;11798;51.528;7.240;2023-03-14T04:21:28;6.77;;;1.90;;
23258;SDS011;11798;51.528;7.240;2023-03-14T04:23:54;8.43;;;2.07;;
23258;SDS011;11798;51.528;7.240;2023-03-14T04:26:20;3.87;;;1.70;;
23258;SDS011;11798;51.528;7.240;2023-03-14T04:28:45;9.70;;;2.00;;
23258;SDS011;11798;51.528;7.240;2023-03-14T04:31:15;6.63;;;2.37;;
23258;SDS011;11798;51.528;7.240;2023-03-14T04:33:45;6.93;;;1.50;;
23258;SDS011;11798;51.528;7.240;2023-03-14T04:36:12;3.70;;;1.53;;
23258;SDS011;11798;51.528;7.240;2023-03-14T04:38:38;4.10;;;1.50;;
23258;SDS011;11798;51.528;7.240;2023-03-14T04:41:04;8.27;;;1.50;;
23258;SDS011;11798;51.528;7.240;2023-03-14T04:43:30;4.27;;;1.30;;
23258;SDS011;11798;51.528;7.240;2023-03-14T04:45:56;2.87;;;0.90;;
23258;SDS011;11798;51.528;7.240;2023-03-14T04:48:22;2.20;;;0.70;;
23258;SDS011;11798;51.528;7.240;2023-03-14T04:50:49;2.97;;;1.03;;
23258;SDS011;11798;51.528;7.240;2023-03-14T04:53:15;1.80;;;1.00;;
23258;SDS011;11798;51.528;7.240;2023-03-14T04:55:46;3.40;;;1.00;;
23258;SDS011;11798;51.528;7.240;2023-03-14T04:58:19;1.97;;;0.77;;
23258;SDS011;11798;51.528;7.240;2023-03-14T05:00:45;4.73;;;1.00;;
23258;SDS011;11798;51.528;7.240;2023-03-14T05:03:11;2.90;;;0.70;;
23258;SDS011;11798;51.528;7.240;2023-03-14T05:05:39;2.23;;;0.60;;
23258;SDS011;11798;51.528;7.240;2023-03-14T05:08:04;3.23;;;0.73;;
23258;SDS011;11798;51.528;7.240;2023-03-14T05:10:30;5.20;;;1.10;;
23258;SDS011;11798;51.528;7.240;2023-03-14T05:12:56;1.93;;;0.77;;
23258;SDS011;11798;51.528;7.240;2023-03-14T05:15:21;2.60;;;0.70;;
23258;SDS011;11798;51.528;7.240;2023-03-14T05:17:47;1.30;;;0.50;;
23258;SDS011;11798;51.528;7.240;2023-03-14T05:20:14;1.47;;;0.60;;
23258;SDS011;11798;51.528;7.240;2023-03-14T05:22:40;2.53;;;0.60;;
23258;SDS011;11798;51.528;7.240;2023-03-14T05:25:06;2.00;;;0.73;;
23258;SDS011;11798;51.528;7.240;2023-03-14T05:27:33;3.03;;;0.60;;
23258;SDS011;11798;51.528;7.240;2023-03-14T05:29:59;2.87;;;0.50;;
23258;SDS011;11798;51.528;7.240;2023-03-14T05:32:25;2.70;;;0.77;;
23258;SDS011;11798;51.528;7.240;2023-03-14T05:34:50;3.97;;;0.80;;
23258;SDS011;11798;51.528;7.240;2023-03-14T05:37:16;0.53;;;0.50;;
23258;SDS011;11798;51.528;7.240;2023-03-14T05:39:42;1.90;;;0.90;;
23258;SDS011;11798;51.528;7.240;2023-03-14T05:42:07;3.33;;;0.90;;
23258;SDS011;11798;51.528;7.240;2023-03-14T05:44:33;1.60;;;0.77;;
23258;SDS011;11798;51.528;7.240;2023-03-14T05:46:59;2.70;;;0.73;;
23258;SDS011;11798;51.528;7.240;2023-03-14T05:49:24;1.07;;;0.60;;
23258;SDS011;11798;51.528;7.240;2023-03-14T05:51:50;4.00;;;0.80;;
23258;SDS011;11798;51.528;7.240;2023-03-14T05:54:16;2.07;;;0.90;;
23258;SDS011;11798;51.528;7.240;2023-03-14T05:56:42;1.93;;;0.93;;
23258;SDS011;11798;51.528;7.240;2023-03-14T05:59:07;4.40;;;0.80;;
23258;SDS011;11798;51.528;7.240;2023-03-14T06:01:34;2.83;;;0.97;;
23258;SDS011;11798;51.528;7.240;2023-03-14T06:03:59;3.40;;;1.30;;
23258;SDS011;11798;51.528;7.240;2023-03-14T06:06:25;3.03;;;1.03;;
23258;SDS011;11798;51.528;7.240;2023-03-14T06:08:51;2.20;;;1.40;;
23258;SDS011;11798;51.528;7.240;2023-03-14T06:11:19;3.67;;;1.30;;
23258;SDS011;11798;51.528;7.240;2023-03-14T06:13:45;4.23;;;1.60;;
23258;SDS011;11798;51.528;7.240;2023-03-14T06:16:11;2.93;;;1.60;;
23258;SDS011;11798;51.528;7.240;2023-03-14T06:18:37;5.67;;;2.07;;
23258;SDS011;11798;51.528;7.240;2023-03-14T06:21:03;4.13;;;2.10;;
23258;SDS011;11798;51.528;7.240;2023-03-14T06:23:29;7.17;;;2.53;;
23258;SDS011;11798;51.528;7.240;2023-03-14T06:25:56;4.83;;;2.60;;
23258;SDS011;11798;51.528;7.240;2023-03-14T06:28:22;4.37;;;2.27;;
23258;SDS011;11798;51.528;7.240;2023-03-14T06:30:48;5.73;;;2.53;;
23258;SDS011;11798;51.528;7.240;2023-03-14T06:33:14;4.93;;;2.20;;
23258;SDS011;11798;51.528;7.240;2023-03-14T06:35:40;5.97;;;2.43;;
23258;SDS011;11798;51.528;7.240;2023-03-14T06:38:05;5.87;;;2.50;;
23258;SDS011;11798;51.528;7.240;2023-03-14T06:40:31;7.20;;;3.03;;
23258;SDS011;11798;51.528;7.240;2023-03-14T06:42:57;6.50;;;3.10;;
23258;SDS011;11798;51.528;7.240;2023-03-14T06:45:22;7.57;;;2.93;;
23258;SDS011;11798;51.528;7.240;2023-03-14T06:47:48;5.43;;;3.30;;
23258;SDS011;11798;51.528;7.240;2023-03-14T06:50:14;8.27;;;3.03;;
23258;SDS011;11798;51.528;7.240;2023-03-14T06:52:39;6.43;;;2.57;;
23258;SDS011;11798;51.528;7.240;2023-03-14T06:55:13;4.77;;;1.97;;
23258;SDS011;11798;51.528;7.240;2023-03-14T06:57:39;6.63;;;2.10;;
23258;SDS011;11798;51.528;7.240;2023-03-14T07:00:05;5.50;;;2.70;;
23258;SDS011;11798;51.528;7.240;2023-03-14T07:02:31;4.10;;;2.10;;
23258;SDS011;11798;51.528;7.240;2023-03-14T07:05:00;3.60;;;1.80;;
23258;SDS011;11798;51.528;7.240;2023-03-14T07:07:26;3.47;;;1.63;;
23258;SDS011;11798;51.528;7.240;2023-03-14T07:09:52;4.43;;;1.70;;
23258;SDS011;11798;51.528;7.240;2023-03-14T07:12:18;3.10;;;1.83;;
23258;SDS011;11798;51.528;7.240;2023-03-14T07:14:44;2.87;;;1.60;;
23258;SDS011;11798;51.528;7.240;2023-03-14T07:17:09;2.93;;;1.50;;
23258;SDS011;11798;51.528;7.240;2023-03-14T07:19:35;2.90;;;1.40;;
23258;SDS011;11798;51.528;7.240;2023-03-14T07:22:01;2.20;;;1.50;;
23258;SDS011;11798;51.528;7.240;2023-03-14T07:24:26;3.60;;;1.33;;
23258;SDS011;11798;51.528;7.240;2023-03-14T07:26:52;1.93;;;1.10;;
23258;SDS011;11798;51.528;7.240;2023-03-14T07:29:18;1.47;;;1.17;;
23258;SDS011;11798;51.528;7.240;2023-03-14T07:31:43;1.77;;;1.13;;
23258;SDS011;11798;51.528;7.240;2023-03-14T07:34:09;1.73;;;1.20;;
23258;SDS011;11798;51.528;7.240;2023-03-14T07:36:34;2.57;;;1.20;;
23258;SDS011;11798;51.528;7.240;2023-03-14T07:39:00;2.23;;;1.30;;
23258;SDS011;11798;51.528;7.240;2023-03-14T07:41:26;3.07;;;1.80;;
23258;SDS011;11798;51.528;7.240;2023-03-14T07:43:52;2.17;;;1.37;;
23258;SDS011;11798;51.528;7.240;2023-03-14T07:46:17;2.43;;;1.47;;
23258;SDS011;11798;51.528;7.240;2023-03-14T07:48:43;2.50;;;1.27;;
23258;SDS011;11798;51.528;7.240;2023-03-14T07:51:09;1.73;;;0.90;;
23258;SDS011;11798;51.528;7.240;2023-03-14T07:53:34;0.80;;;0.80;;
23258;SDS011;11798;51.528;7.240;2023-03-14T07:56:00;1.37;;;1.20;;
23258;SDS011;11798;51.528;7.240;2023-03-14T07:58:26;3.03;;;1.00;;
23258;SDS011;11798;51.528;7.240;2023-03-14T08:00:51;1.33;;;1.20;;
23258;SDS011;11798;51.528;7.240;2023-03-14T08:03:18;1.27;;;1.17;;
23258;SDS011;11798;51.528;7.240;2023-03-14T08:05:43;1.30;;;1.20;;
23258;SDS011;11798;51.528;7.240;2023-03-14T08:08:12;1.30;;;1.20;;
23258;SDS011;11798;51.528;7.240;2023-03-14T08:10:37;1.70;;;1.17;;
23258;SDS011;11798;51.528;7.240;2023-03-14T08:13:03;1.07;;;1.00;;
23258;SDS011;11798;51.528;7.240;2023-03-14T08:15:29;2.40;;;1.53;;
23258;SDS011;11798;51.528;7.240;2023-03-14T08:17:56;1.87;;;1.27;;
23258;SDS011;11798;51.528;7.240;2023-03-14T08:20:23;3.13;;;1.33;;
23258;SDS011;11798;51.528;7.240;2023-03-14T08:22:50;2.10;;;1.40;;
23258;SDS011;11798;51.528;7.240;2023-03-14T08:25:16;2.30;;;1.30;;
23258;SDS011;11798;51.528;7.240;2023-03-14T08:27:42;2.73;;;1.53;;
23258;SDS011;11798;51.528;7.240;2023-03-14T08:30:09;1.57;;;1.47;;
23258;SDS011;11798;51.528;7.240;2023-03-14T08:32:36;1.93;;;1.73;;
23258;SDS011;11798;51.528;7.240;2023-03-14T08:35:03;2.60;;;1.70;;
23258;SDS011;11798;51.528;7.240;2023-03-14T08:37:33;3.43;;;1.90;;
23258;SDS011;11798;51.528;7.240;2023-03-14T08:40:00;4.37;;;1.87;;
23258;SDS011;11798;51.528;7.240;2023-03-14T08:42:30;2.30;;;1.80;;
23258;SDS011;11798;51.528;7.240;2023-03-14T08:44:57;3.33;;;1.80;;
23258;SDS011;11798;51.528;7.240;2023-03-14T08:47:22;2.10;;;1.90;;
23258;SDS011;11798;51.528;7.240;2023-03-14T08:49:48;2.53;;;1.77;;
23258;SDS011;11798;51.528;7.240;2023-03-14T08:52:14;5.70;;;2.17;;
23258;SDS011;11798;51.528;7.240;2023-03-14T08:54:41;2.80;;;1.53;;
23258;SDS011;11798;51.528;7.240;2023-03-14T08:57:08;3.77;;;1.90;;
23258;SDS011;11798;51.528;7.240;2023-03-14T08:59:33;2.23;;;1.90;;
23258;SDS011;11798;51.528;7.240;2023-03-14T09:01:59;2.73;;;1.97;;
23258;SDS011;11798;51.528;7.240;2023-03-14T09:04:28;3.07;;;2.00;;
23258;SDS011;11798;51.528;7.240;2023-03-14T09:06:54;2.93;;;2.20;;
23258;SDS011;11798;51.528;7.240;2023-03-14T09:09:22;2.60;;;1.73;;
23258;SDS011;11798;51.528;7.240;2023-03-14T09:11:48;2.73;;;1.60;;
23258;SDS011;11798;51.528;7.240;2023-03-14T09:14:14;2.20;;;1.67;;
23258;SDS011;11798;51.528;7.240;2023-03-14T09:16:40;2.07;;;1.50;;
23258;SDS011;11798;51.528;7.240;2023-03-14T09:19:05;3.57;;;1.47;;
23258;SDS011;11798;51.528;7.240;2023-03-14T09:21:31;3.10;;;1.37;;
23258;SDS011;11798;51.528;7.240;2023-03-14T09:23:57;1.20;;;1.10;;
23258;SDS011;11798;51.528;7.240;2023-03-14T09:26:22;2.90;;;1.20;;
23258;SDS011;11798;51.528;7.240;2023-03-14T09:28:48;1.80;;;1.40;;
23258;SDS011;11798;51.528;7.240;2023-03-14T09:31:14;4.33;;;1.70;;
23258;SDS011;11798;51.528;7.240;2023-03-14T09:33:40;1.93;;;1.60;;
23258;SDS011;11798;51.528;7.240;2023-03-14T09:36:06;2.67;;;1.83;;
23258;SDS011;11798;51.528;7.240;2023-03-14T09:38:32;1.77;;;1.30;;
23258;SDS011;11798;51.528;7.240;2023-03-14T09:40:59;2.90;;;0.83;;
23258;SDS011;11798;51.528;7.240;2023-03-14T09:43:31;0.97;;;0.80;;
23258;SDS011;11798;51.528;7.240;2023-03-14T09:46:00;0.90;;;0.53;;
23258;SDS011;11798;51.528;7.240;2023-03-14T09:48:29;1.87;;;0.70;;
23258;SDS011;11798;51.528;7.240;2023-03-14T09:50:56;1.97;;;0.60;;
23258;SDS011;11798;51.528;7.240;2023-03-14T09:53:28;0.80;;;0.50;;
23258;SDS011;11798;51.528;7.240;2023-03-14T09:56:04;0.73;;;0.70;;
23258;SDS011;11798;51.528;7.240;2023-03-14T09:58:47;1.70;;;0.57;;
23258;SDS011;11798;51.528;7.240;2023-03-14T10:01:17;0.60;;;0.60;;
23258;SDS011;11798;51.528;7.240;2023-03-14T10:03:47;0.77;;;0.70;;
23258;SDS011;11798;51.528;7.240;2023-03-14T10:06:14;2.23;;;1.10;;
23258;SDS011;11798;51.528;7.240;2023-03-14T10:08:44;1.70;;;0.70;;
23258;SDS011;11798;51.528;7.240;2023-03-14T10:11:16;1.13;;;0.83;;
23258;SDS011;11798;51.528;7.240;2023-03-14T10:13:52;1.90;;;0.77;;
23258;SDS011;11798;51.528;7.240;2023-03-14T10:16:28;1.90;;;1.00;;
23258;SDS011;11798;51.528;7.240;2023-03-14T10:19:01;1.40;;;1.00;;
23258;SDS011;11798;51.528;7.240;2023-03-14T10:21:29;1.90;;;1.10;;
23258;SDS011;11798;51.528;7.240;2023-03-14T10:24:44;1.33;;;1.10;;
23258;SDS011;11798;51.528;7.240;2023-03-14T10:26:49;2.77;;;1.97;;
23258;SDS011;11798;51.528;7.240;2023-03-14T10:29:18;4.63;;;1.67;;
23258;SDS011;11798;51.528;7.240;2023-03-14T10:31:48;1.10;;;0.90;;
23258;SDS011;11798;51.528;7.240;2023-03-14T10:34:16;5.57;;;1.20;;
23258;SDS011;11798;51.528;7.240;2023-03-14T10:36:46;1.30;;;0.90;;
23258;SDS011;11798;51.528;7.240;2023-03-14T10:41:56;1.23;;;0.80;;
23258;SDS011;11798;51.528;7.240;2023-03-14T10:44:29;2.40;;;1.20;;
23258;SDS011;11798;51.528;7.240;2023-03-14T10:47:00;1.90;;;1.13;;
23258;SDS011;11798;51.528;7.240;2023-03-14T10:49:30;1.73;;;1.00;;
23258;SDS011;11798;51.528;7.240;2023-03-14T10:52:01;2.17;;;0.90;;
23258;SDS011;11798;51.528;7.240;2023-03-14T10:54:49;3.77;;;1.50;;
23258;SDS011;11798;51.528;7.240;2023-03-14T10:57:22;2.53;;;0.80;;
23258;SDS011;11798;51.528;7.240;2023-03-14T10:59:47;1.83;;;0.70;;
23258;SDS011;11798;51.528;7.240;2023-03-14T11:07:52;5.20;;;1.27;;
23258;SDS011;11798;51.528;7.240;2023-03-14T11:10:32;4.53;;;1.50;;
23258;SDS011;11798;51.528;7.240;2023-03-14T11:26:52;3.70;;;1.77;;
23258;SDS011;11798;51.528;7.240;2023-03-14T11:32:32;2.17;;;1.43;;
23258;SDS011;11798;51.528;7.240;2023-03-14T11:35:08;2.40;;;2.20;;
23258;SDS011;11798;51.528;7.240;2023-03-14T11:37:48;2.67;;;1.67;;
23258;SDS011;11798;51.528;7.240;2023-03-14T11:40:20;2.50;;;1.70;;
23258;SDS011;11798;51.528;7.240;2023-03-14T11:43:11;2.63;;;1.63;;
23258;SDS011;11798;51.528;7.240;2023-03-14T11:45:37;2.43;;;1.90;;
23258;SDS011;11798;51.528;7.240;2023-03-14T11:50:53;1.53;;;1.00;;
23258;SDS011;11798;51.528;7.240;2023-03-14T11:53:34;3.57;;;1.53;;
23258;SDS011;11798;51.528;7.240;2023-03-14T11:56:02;2.23;;;1.67;;
23258;SDS011;11798;51.528;7.240;2023-03-14T11:58:33;3.80;;;1.60;;
23258;SDS011;11798;51.528;7.240;2023-03-14T12:01:05;4.40;;;1.67;;
23258;SDS011;11798;51.528;7.240;2023-03-14T12:08:55;3.53;;;1.47;;
23258;SDS011;11798;51.528;7.240;2023-03-14T12:12:10;3.73;;;1.60;;
23258;SDS011;11798;51.528;7.240;2023-03-14T12:17:07;4.00;;;2.17;;
23258;SDS011;11798;51.528;7.240;2023-03-14T12:20:15;4.20;;;1.77;;
23258;SDS011;11798;51.528;7.240;2023-03-14T12:22:44;4.37;;;2.37;;
23258;SDS011;11798;51.528;7.240;2023-03-14T12:25:19;2.40;;;1.63;;
23258;SDS011;11798;51.528;7.240;2023-03-14T12:30:32;3.83;;;1.20;;
23258;SDS011;11798;51.528;7.240;2023-03-14T12:35:43;4.80;;;1.47;;
23258;SDS011;11798;51.528;7.240;2023-03-14T12:38:09;5.87;;;1.73;;
23258;SDS011;11798;51.528;7.240;2023-03-14T12:40:55;4.13;;;1.57;;
23258;SDS011;11798;51.528;7.240;2023-03-14T12:43:32;2.60;;;1.50;;
23258;SDS011;11798;51.528;7.240;2023-03-14T12:48:34;5.77;;;1.97;;
23258;SDS011;11798;51.528;7.240;2023-03-14T12:51:03;6.50;;;1.60;;
23258;SDS011;11798;51.528;7.240;2023-03-14T12:56:21;5.23;;;1.40;;
23258;SDS011;11798;51.528;7.240;2023-03-14T12:59:17;5.40;;;1.70;;
23258;SDS011;11798;51.528;7.240;2023-03-14T13:07:13;7.27;;;2.00;;
23258;SDS011;11798;51.528;7.240;2023-03-14T13:15:23;9.27;;;1.87;;
23258;SDS011;11798;51.528;7.240;2023-03-14T13:17:52;10.93;;;2.43;;
23258;SDS011;11798;51.528;7.240;2023-03-14T13:20:23;11.83;;;2.17;;
23258;SDS011;11798;51.528;7.240;2023-03-14T13:22:53;9.63;;;2.00;;
23258;SDS011;11798;51.528;7.240;2023-03-14T13:25:19;9.20;;;1.90;;
23258;SDS011;11798;51.528;7.240;2023-03-14T13:27:47;13.37;;;3.27;;
23258;SDS011;11798;51.528;7.240;2023-03-14T13:32:41;15.40;;;2.93;;
23258;SDS011;11798;51.528;7.240;2023-03-14T13:35:29;13.67;;;3.23;;
23258;SDS011;11798;51.528;7.240;2023-03-14T13:38:02;8.43;;;3.00;;
23258;SDS011;11798;51.528;7.240;2023-03-14T13:40:31;16.67;;;4.17;;
23258;SDS011;11798;51.528;7.240;2023-03-14T13:42:59;11.73;;;3.40;;
23258;SDS011;11798;51.528;7.240;2023-03-14T13:45:28;15.70;;;3.17;;
23258;SDS011;11798;51.528;7.240;2023-03-14T13:47:53;14.10;;;3.67;;
23258;SDS011;11798;51.528;7.240;2023-03-14T13:50:19;20.40;;;3.47;;
23258;SDS011;11798;51.528;7.240;2023-03-14T13:52:45;18.20;;;4.30;;
23258;SDS011;11798;51.528;7.240;2023-03-14T13:55:17;12.30;;;3.00;;
23258;SDS011;11798;51.528;7.240;2023-03-14T13:57:47;15.70;;;3.23;;
23258;SDS011;11798;51.528;7.240;2023-03-14T14:00:23;10.60;;;3.10;;
23258;SDS011;11798;51.528;7.240;2023-03-14T14:02:55;13.43;;;3.00;;
23258;SDS011;11798;51.528;7.240;2023-03-14T14:05:28;16.17;;;3.07;;
23258;SDS011;11798;51.528;7.240;2023-03-14T14:07:54;16.63;;;3.57;;
23258;SDS011;11798;51.528;7.240;2023-03-14T14:10:21;14.37;;;3.17;;
23258;SDS011;11798;51.528;7.240;2023-03-14T14:12:52;15.77;;;3.17;;
23258;SDS011;11798;51.528;7.240;2023-03-14T14:15:28;15.70;;;2.90;;
23258;SDS011;11798;51.528;7.240;2023-03-14T14:18:06;16.80;;;2.93;;
23258;SDS011;11798;51.528;7.240;2023-03-14T14:23:10;13.77;;;2.70;;
23258;SDS011;11798;51.528;7.240;2023-03-14T14:25:57;11.60;;;2.63;;
23258;SDS011;11798;51.528;7.240;2023-03-14T14:31:00;14.30;;;3.43;;
23258;SDS011;11798;51.528;7.240;2023-03-14T14:36:15;12.23;;;2.67;;
23258;SDS011;11798;51.528;7.240;2023-03-14T14:38:50;9.57;;;2.13;;
23258;SDS011;11798;51.528;7.240;2023-03-14T14:41:39;16.23;;;2.57;;
23258;SDS011;11798;51.528;7.240;2023-03-14T14:44:06;14.30;;;2.93;;
23258;SDS011;11798;51.528;7.240;2023-03-14T14:46:32;14.23;;;2.93;;
23258;SDS011;11798;51.528;7.240;2023-03-14T14:49:18;12.00;;;2.40;;
23258;SDS011;11798;51.528;7.240;2023-03-14T14:51:48;14.47;;;2.23;;
23258;SDS011;11798;51.528;7.240;2023-03-14T14:54:19;12.07;;;2.40;;
23258;SDS011;11798;51.528;7.240;2023-03-14T14:57:00;12.07;;;2.47;;
23258;SDS011;11798;51.528;7.240;2023-03-14T14:59:28;10.33;;;2.50;;
23258;SDS011;11798;51.528;7.240;2023-03-14T15:01:57;6.77;;;2.37;;
23258;SDS011;11798;51.528;7.240;2023-03-14T15:04:29;9.93;;;2.83;;
23258;SDS011;11798;51.528;7.240;2023-03-14T15:06:56;8.97;;;2.07;;
23258;SDS011;11798;51.528;7.240;2023-03-14T15:09:22;8.93;;;2.87;;
23258;SDS011;11798;51.528;7.240;2023-03-14T15:11:49;7.27;;;2.00;;
23258;SDS011;11798;51.528;7.240;2023-03-14T15:14:15;9.97;;;2.27;;
23258;SDS011;11798;51.528;7.240;2023-03-14T15:16:40;12.07;;;2.53;;
23258;SDS011;11798;51.528;7.240;2023-03-14T15:19:10;9.97;;;2.27;;
23258;SDS011;11798;51.528;7.240;2023-03-14T15:21:49;5.90;;;2.33;;
23258;SDS011;11798;51.528;7.240;2023-03-14T15:24:14;14.03;;;2.60;;
23258;SDS011;11798;51.528;7.240;2023-03-14T15:26:40;11.03;;;2.63;;
23258;SDS011;11798;51.528;7.240;2023-03-14T15:29:06;11.03;;;2.23;;
23258;SDS011;11798;51.528;7.240;2023-03-14T15:31:34;7.13;;;2.00;;
23258;SDS011;11798;51.528;7.240;2023-03-14T15:34:00;11.60;;;2.13;;
23258;SDS011;11798;51.528;7.240;2023-03-14T15:36:27;11.17;;;2.60;;
23258;SDS011;11798;51.528;7.240;2023-03-14T15:38:55;9.00;;;2.30;;
23258;SDS011;11798;51.528;7.240;2023-03-14T15:41:22;9.37;;;1.60;;
23258;SDS011;11798;51.528;7.240;2023-03-14T15:43:48;7.77;;;1.90;;
23258;SDS011;11798;51.528;7.240;2023-03-14T15:46:15;8.33;;;2.33;;
23258;SDS011;11798;51.528;7.240;2023-03-14T15:48:42;7.20;;;1.73;;
23258;SDS011;11798;51.528;7.240;2023-03-14T15:51:09;11.37;;;2.30;;
23258;SDS011;11798;51.528;7.240;2023-03-14T15:53:35;9.63;;;2.17;;
23258;SDS011;11798;51.528;7.240;2023-03-14T15:56:02;6.50;;;1.80;;
23258;SDS011;11798;51.528;7.240;2023-03-14T15:58:28;8.60;;;2.10;;
23258;SDS011;11798;51.528;7.240;2023-03-14T16:00:54;10.97;;;2.37;;
23258;SDS011;11798;51.528;7.240;2023-03-14T16:03:20;9.40;;;1.80;;
23258;SDS011;11798;51.528;7.240;2023-03-14T16:05:45;6.13;;;1.70;;
23258;SDS011;11798;51.528;7.240;2023-03-14T16:08:11;5.27;;;1.20;;